Time;durP1;ratioP1;P1;durP2;ratioP2;P2;SDS_P1;SDS_P2;PMS_P1;PMS_P2;Temp;Humidity;BMP_temperature;BMP_pressure;BME280_temperature;BME280_humidity;BME280_pressure;Samples;Min_cycle;Max_cycle;Signal;HPM_P1;HPM_P2
2023/07/03 00:02:04;;;;;;;0.00;0.00;;;16.70;91.00;;;;;;5051615;28;20239;-61
2023/07/03 00:04:35;;;;;;;0.00;0.00;;;16.60;91.30;;;;;;5051100;28;20644;-61
2023/07/03 00:07:04;;;;;;;0.00;0.00;;;16.60;91.50;;;;;;5051160;28;20185;-61
2023/07/03 00:09:30;;;;;;;0.00;0.00;;;16.50;91.90;;;;;;5051068;28;20232;-61
2023/07/03 00:11:56;;;;;;;0.00;0.00;;;16.50;92.10;;;;;;5051392;28;20239;-61
2023/07/03 00:14:21;;;;;;;0.20;0.20;;;16.40;92.40;;;;;;5049482;28;20182;-61
2023/07/03 00:16:47;;;;;;;0.05;0.05;;;16.30;92.80;;;;;;5050813;28;20215;-61
2023/07/03 00:19:13;;;;;;;0.25;0.25;;;16.30;93.20;;;;;;5050899;28;20181;-62
2023/07/03 00:21:43;;;;;;;0.10;0.10;;;16.30;93.40;;;;;;5049673;28;20169;-61
2023/07/03 00:24:12;;;;;;;0.00;0.00;;;16.30;93.60;;;;;;5051099;28;20235;-61
2023/07/03 00:26:38;;;;;;;0.00;0.00;;;16.30;93.90;;;;;;5050759;28;20177;-61
2023/07/03 00:29:04;;;;;;;0.03;0.03;;;16.30;93.90;;;;;;5050701;28;20217;-61
2023/07/03 00:31:30;;;;;;;0.22;0.22;;;16.30;94.20;;;;;;5050605;28;20192;-61
2023/07/03 00:33:56;;;;;;;0.20;0.20;;;16.30;94.30;;;;;;5040026;28;20173;-61
2023/07/03 00:36:22;;;;;;;0.00;0.00;;;16.30;94.50;;;;;;5050656;28;20201;-61
2023/07/03 00:38:47;;;;;;;0.00;0.00;;;16.30;94.60;;;;;;5049731;28;20186;-61
2023/07/03 00:41:13;;;;;;;0.20;0.20;;;16.30;94.70;;;;;;5050721;28;20173;-61
2023/07/03 00:43:40;;;;;;;0.00;0.00;;;16.30;94.70;;;;;;5050518;28;20177;-61
2023/07/03 00:46:11;;;;;;;0.00;0.00;;;16.30;94.80;;;;;;5050591;28;20170;-61
2023/07/03 00:48:38;;;;;;;0.00;0.00;;;16.30;94.80;;;;;;5050342;28;20213;-61
2023/07/03 00:51:04;;;;;;;0.15;0.15;;;16.30;95.10;;;;;;5050358;28;20262;-61
2023/07/03 00:53:29;;;;;;;0.00;0.00;;;16.30;94.80;;;;;;5050836;28;20617;-61
2023/07/03 00:55:55;;;;;;;0.73;0.20;;;16.30;95.10;;;;;;5050293;28;20181;-62
2023/07/03 00:58:21;;;;;;;0.00;0.00;;;16.30;94.70;;;;;;5050557;28;20652;-61
2023/07/03 01:00:55;;;;;;;0.00;0.00;;;16.30;94.60;;;;;;5050464;28;20180;-61
2023/07/03 01:03:27;;;;;;;0.00;0.00;;;16.30;94.70;;;;;;5050040;28;20191;-62
2023/07/03 01:05:55;;;;;;;0.00;0.00;;;16.30;94.90;;;;;;5050606;28;20169;-62
2023/07/03 01:08:21;;;;;;;0.08;0.08;;;16.30;95.00;;;;;;5050063;28;20181;-61
2023/07/03 01:10:47;;;;;;;0.00;0.00;;;16.30;95.00;;;;;;5050571;28;20284;-61
2023/07/03 01:13:16;;;;;;;0.00;0.00;;;16.30;95.10;;;;;;5050482;28;20208;-62
2023/07/03 01:15:43;;;;;;;0.00;0.00;;;16.30;95.20;;;;;;5050676;28;20200;-62
2023/07/03 01:18:10;;;;;;;0.00;0.00;;;16.30;95.30;;;;;;5045818;28;20313;-62
2023/07/03 01:20:48;;;;;;;0.00;0.00;;;16.30;95.40;;;;;;5047122;28;20204;-61
2023/07/03 01:23:36;;;;;;;0.00;0.00;;;16.30;95.40;;;;;;5049544;28;20181;-61
2023/07/03 01:26:04;;;;;;;0.00;0.00;;;16.30;95.40;;;;;;5045231;28;20268;-61
2023/07/03 01:28:32;;;;;;;0.00;0.00;;;16.30;95.50;;;;;;5049857;28;20225;-61
2023/07/03 01:30:59;;;;;;;0.00;0.00;;;16.30;95.50;;;;;;5049079;28;20200;-61
2023/07/03 01:33:30;;;;;;;0.00;0.00;;;16.30;95.40;;;;;;5050390;28;20185;-62
2023/07/03 01:35:58;;;;;;;0.00;0.00;;;16.30;95.60;;;;;;5050310;28;20198;-61
2023/07/03 01:38:24;;;;;;;0.05;0.05;;;16.30;95.60;;;;;;5050372;28;20224;-61
2023/07/03 01:40:52;;;;;;;0.15;0.15;;;16.40;95.70;;;;;;5050137;28;20178;-61
2023/07/03 01:43:18;;;;;;;0.00;0.00;;;16.40;95.80;;;;;;5048922;28;20185;-61
2023/07/03 01:45:46;;;;;;;0.00;0.00;;;16.40;95.50;;;;;;5049000;28;20174;-61
2023/07/03 01:48:11;;;;;;;0.10;0.10;;;16.50;95.50;;;;;;5050308;28;20314;-62
2023/07/03 01:50:38;;;;;;;0.00;0.00;;;16.50;95.30;;;;;;5049993;28;20284;-61
2023/07/03 01:53:24;;;;;;;0.00;0.00;;;16.60;95.30;;;;;;5050217;28;20174;-60
2023/07/03 01:56:04;;;;;;;0.17;0.17;;;16.60;95.50;;;;;;5050121;28;20256;-60
2023/07/03 01:59:02;;;;;;;0.00;0.00;;;16.70;95.40;;;;;;5050209;28;20181;-60
2023/07/03 02:01:33;;;;;;;0.00;0.00;;;16.70;95.40;;;;;;5031088;28;20209;-60
2023/07/03 02:04:09;;;;;;;0.35;0.35;;;16.70;95.40;;;;;;5052315;28;20220;-60
2023/07/03 02:06:42;;;;;;;0.00;0.00;;;16.80;95.50;;;;;;5053640;28;20636;-60
2023/07/03 02:09:08;;;;;;;0.00;0.00;;;16.80;95.30;;;;;;5053639;28;20186;-60
2023/07/03 02:11:34;;;;;;;0.00;0.00;;;16.80;95.40;;;;;;5053458;28;20181;-60
2023/07/03 02:14:00;;;;;;;0.10;0.10;;;16.90;95.70;;;;;;5053733;28;20184;-60
2023/07/03 02:16:29;;;;;;;0.00;0.00;;;16.90;95.30;;;;;;5053271;28;20201;-60
2023/07/03 02:18:55;;;;;;;0.00;0.00;;;16.90;95.20;;;;;;5052348;28;20668;-60
2023/07/03 02:21:21;;;;;;;0.00;0.00;;;17.00;95.20;;;;;;5052886;28;20196;-61
2023/07/03 02:23:47;;;;;;;0.25;0.25;;;17.00;95.00;;;;;;5053469;28;20674;-60
2023/07/03 02:26:14;;;;;;;0.00;0.00;;;17.00;95.00;;;;;;5052934;28;20212;-60
2023/07/03 02:28:40;;;;;;;0.00;0.00;;;17.10;95.00;;;;;;5052939;28;20221;-60
2023/07/03 02:31:05;;;;;;;0.00;0.00;;;17.10;94.90;;;;;;5053073;28;20264;-61
2023/07/03 02:33:31;;;;;;;0.35;0.08;;;17.20;94.80;;;;;;5053313;28;20189;-61
2023/07/03 02:35:56;;;;;;;0.00;0.00;;;17.20;95.00;;;;;;5053261;28;20185;-60
2023/07/03 02:38:22;;;;;;;0.00;0.00;;;17.20;94.90;;;;;;5053427;28;20255;-61
2023/07/03 02:40:47;;;;;;;1.00;0.35;;;17.20;94.90;;;;;;5051896;28;20862;-61
2023/07/03 02:43:14;;;;;;;1.65;1.55;;;17.20;94.90;;;;;;5053289;28;20186;-60
2023/07/03 02:45:41;;;;;;;0.03;0.03;;;17.20;94.90;;;;;;5053314;28;20173;-60
2023/07/03 02:48:09;;;;;;;0.00;0.00;;;17.30;95.00;;;;;;5053152;28;20181;-60
2023/07/03 02:50:35;;;;;;;0.00;0.00;;;17.30;95.10;;;;;;5051286;28;20589;-60
2023/07/03 02:53:01;;;;;;;0.57;0.28;;;17.30;95.10;;;;;;5053021;28;20205;-60
2023/07/03 02:55:26;;;;;;;0.00;0.00;;;17.30;95.00;;;;;;5051668;28;20189;-61
2023/07/03 02:57:54;;;;;;;0.00;0.00;;;17.30;95.00;;;;;;5053045;28;20280;-61
2023/07/03 03:00:19;;;;;;;0.17;0.17;;;17.30;95.10;;;;;;5052937;28;20173;-60
2023/07/03 03:02:45;;;;;;;0.00;0.00;;;17.30;95.00;;;;;;5052845;28;20263;-60
2023/07/03 03:05:13;;;;;;;0.00;0.00;;;17.30;95.00;;;;;;5052848;28;20186;-60
2023/07/03 03:07:38;;;;;;;0.10;0.10;;;17.30;95.20;;;;;;5052076;28;20189;-61
2023/07/03 03:10:05;;;;;;;0.30;0.30;;;17.30;95.30;;;;;;5051845;28;20185;-61
2023/07/03 03:12:30;;;;;;;0.00;0.00;;;17.30;95.30;;;;;;5052340;28;20663;-60
2023/07/03 03:14:56;;;;;;;0.03;0.03;;;17.30;95.40;;;;;;5052272;28;20173;-60
2023/07/03 03:17:21;;;;;;;0.32;0.32;;;17.30;95.50;;;;;;5052163;28;20217;-62
2023/07/03 03:19:47;;;;;;;0.00;0.00;;;17.30;95.60;;;;;;5051914;28;20186;-61
2023/07/03 03:22:13;;;;;;;0.00;0.00;;;17.30;95.60;;;;;;5052007;28;20552;-61
2023/07/03 03:24:38;;;;;;;0.00;0.00;;;17.30;95.70;;;;;;5051503;28;20216;-62
2023/07/03 03:27:06;;;;;;;0.10;0.10;;;17.30;95.70;;;;;;5051100;28;20744;-62
2023/07/03 03:29:33;;;;;;;0.15;0.15;;;17.40;95.80;;;;;;5052745;28;20193;-62
2023/07/03 03:31:59;;;;;;;0.00;0.00;;;17.40;95.80;;;;;;5052470;28;20548;-60
2023/07/03 03:34:25;;;;;;;0.10;0.10;;;17.40;95.70;;;;;;5050056;28;20710;-62
2023/07/03 03:36:50;;;;;;;0.10;0.10;;;17.40;95.70;;;;;;5052502;28;20201;-61
2023/07/03 03:39:16;;;;;;;0.00;0.00;;;17.40;95.70;;;;;;5051542;28;20189;-60
2023/07/03 03:41:41;;;;;;;0.00;0.00;;;17.40;95.80;;;;;;5052431;28;20181;-62
2023/07/03 03:44:07;;;;;;;0.00;0.00;;;17.50;95.80;;;;;;5052151;28;20184;-60
2023/07/03 03:46:34;;;;;;;0.70;0.10;;;17.40;95.90;;;;;;5052471;28;20177;-63
2023/07/03 03:49:00;;;;;;;0.30;0.30;;;17.50;95.90;;;;;;5052223;28;20185;-61
2023/07/03 03:51:25;;;;;;;0.00;0.00;;;17.50;96.00;;;;;;5051995;28;20170;-60
2023/07/03 03:53:51;;;;;;;0.00;0.00;;;17.50;95.90;;;;;;5051915;28;20223;-59
2023/07/03 03:56:16;;;;;;;0.00;0.00;;;17.50;95.90;;;;;;5051599;28;20596;-61
2023/07/03 03:58:42;;;;;;;0.05;0.05;;;17.50;95.90;;;;;;5051744;28;20186;-60
2023/07/03 04:01:07;;;;;;;0.00;0.00;;;17.60;95.80;;;;;;5051809;28;20675;-60
2023/07/03 04:03:33;;;;;;;0.20;0.20;;;17.60;95.70;;;;;;5051619;28;20169;-61
2023/07/03 04:05:58;;;;;;;0.00;0.00;;;17.60;95.70;;;;;;5051483;28;20192;-60
2023/07/03 04:08:24;;;;;;;0.00;0.00;;;17.60;95.60;;;;;;5050881;28;20177;-59
2023/07/03 04:10:49;;;;;;;0.00;0.00;;;17.60;95.60;;;;;;5052312;28;20584;-60
2023/07/03 04:13:16;;;;;;;0.00;0.00;;;17.60;95.60;;;;;;5052058;28;20268;-59
2023/07/03 04:15:53;;;;;;;0.00;0.00;;;17.70;95.70;;;;;;5051826;28;20170;-59
2023/07/03 04:18:20;;;;;;;0.00;0.00;;;17.70;95.70;;;;;;5050504;28;20208;-60
2023/07/03 04:20:46;;;;;;;0.00;0.00;;;17.70;95.90;;;;;;5051723;28;20532;-59
2023/07/03 04:23:12;;;;;;;0.00;0.00;;;17.60;96.20;;;;;;5051219;28;20188;-59
2023/07/03 04:25:38;;;;;;;0.00;0.00;;;17.70;96.00;;;;;;5051922;28;20169;-59
2023/07/03 04:28:04;;;;;;;0.00;0.00;;;17.70;96.20;;;;;;5051161;28;20229;-59
2023/07/03 04:30:29;;;;;;;0.00;0.00;;;17.70;96.20;;;;;;5051448;28;20181;-59
2023/07/03 04:32:55;;;;;;;0.00;0.00;;;17.70;96.20;;;;;;5051371;28;20478;-59
2023/07/03 04:35:21;;;;;;;0.00;0.00;;;17.70;96.20;;;;;;5051349;28;20185;-59
2023/07/03 04:37:49;;;;;;;0.00;0.00;;;17.70;96.20;;;;;;5051419;28;20217;-59
2023/07/03 04:40:14;;;;;;;0.00;0.00;;;17.80;96.20;;;;;;5051050;28;20548;-59
2023/07/03 04:42:40;;;;;;;0.10;0.10;;;17.80;96.40;;;;;;5051193;28;20275;-59
2023/07/03 04:45:08;;;;;;;0.00;0.00;;;17.80;96.40;;;;;;5051065;28;20177;-59
2023/07/03 04:47:37;;;;;;;0.00;0.00;;;17.80;96.50;;;;;;5050848;28;20178;-59
2023/07/03 04:50:08;;;;;;;0.00;0.00;;;17.90;96.60;;;;;;5051162;28;20838;-59
2023/07/03 04:52:36;;;;;;;0.00;0.00;;;17.90;96.60;;;;;;5050937;28;20189;-59
2023/07/03 04:55:02;;;;;;;0.05;0.05;;;17.90;96.60;;;;;;5051074;28;20275;-59
2023/07/03 04:57:28;;;;;;;0.00;0.00;;;17.90;96.60;;;;;;5050820;28;20228;-59
2023/07/03 04:59:55;;;;;;;0.00;0.00;;;17.90;96.70;;;;;;5050867;28;20177;-59
2023/07/03 05:02:21;;;;;;;0.00;0.00;;;17.90;97.20;;;;;;5050794;28;20223;-59
2023/07/03 05:04:46;;;;;;;0.22;0.22;;;18.00;96.80;;;;;;5049672;28;20247;-59
2023/07/03 05:07:12;;;;;;;0.17;0.17;;;18.00;97.00;;;;;;5050676;28;20195;-59
2023/07/03 05:09:38;;;;;;;0.00;0.00;;;18.10;97.10;;;;;;5050660;28;20264;-59
2023/07/03 05:12:04;;;;;;;0.00;0.00;;;18.10;97.10;;;;;;5050835;28;20285;-59
2023/07/03 05:14:29;;;;;;;0.00;0.00;;;18.20;97.20;;;;;;5050644;28;20177;-59
2023/07/03 05:16:55;;;;;;;0.00;0.00;;;18.30;97.00;;;;;;5050694;28;20247;-59
2023/07/03 05:19:21;;;;;;;0.00;0.00;;;18.30;96.90;;;;;;5050390;28;20221;-59
2023/07/03 05:21:47;;;;;;;0.10;0.10;;;18.50;97.30;;;;;;5050437;28;20537;-59
2023/07/03 05:24:12;;;;;;;0.00;0.00;;;18.60;96.90;;;;;;5050196;28;20177;-59
2023/07/03 05:26:39;;;;;;;0.00;0.00;;;18.60;97.00;;;;;;5050251;28;20173;-59
2023/07/03 05:29:05;;;;;;;0.10;0.10;;;18.70;97.00;;;;;;5050177;28;20336;-59
2023/07/03 05:31:30;;;;;;;0.00;0.00;;;18.70;96.70;;;;;;5050198;28;20594;-60
2023/07/03 05:33:56;;;;;;;0.00;0.00;;;18.80;96.70;;;;;;5050594;28;20204;-59
2023/07/03 05:36:22;;;;;;;0.00;0.00;;;18.80;96.60;;;;;;5054250;28;20239;-59
2023/07/03 05:38:48;;;;;;;0.00;0.00;;;18.80;96.60;;;;;;5054406;28;20268;-59
2023/07/03 05:41:14;;;;;;;0.00;0.00;;;18.90;96.60;;;;;;5054322;28;20743;-59
2023/07/03 05:43:40;;;;;;;0.10;0.10;;;18.90;96.50;;;;;;5054094;28;20211;-59
2023/07/03 05:46:05;;;;;;;0.25;0.25;;;18.90;96.60;;;;;;5053599;28;20256;-59
2023/07/03 05:48:31;;;;;;;0.00;0.00;;;18.90;96.60;;;;;;5053746;28;20545;-59
2023/07/03 05:50:56;;;;;;;0.00;0.00;;;18.80;96.50;;;;;;5054237;28;20803;-61
2023/07/03 05:53:22;;;;;;;0.00;0.00;;;18.80;96.70;;;;;;5053839;28;20184;-60
2023/07/03 05:55:58;;;;;;;0.05;0.05;;;18.80;96.60;;;;;;5054006;28;20177;-60
2023/07/03 05:58:25;;;;;;;0.00;0.00;;;18.90;96.70;;;;;;5054023;28;20184;-60
2023/07/03 06:00:50;;;;;;;0.00;0.00;;;18.90;96.60;;;;;;5053965;28;20808;-60
2023/07/03 06:03:16;;;;;;;0.00;0.00;;;19.00;96.60;;;;;;5053474;28;20245;-60
2023/07/03 06:05:42;;;;;;;0.00;0.00;;;18.90;96.60;;;;;;5053813;28;20169;-60
2023/07/03 06:08:07;;;;;;;0.00;0.00;;;19.00;96.80;;;;;;5053766;28;20189;-60
2023/07/03 06:10:33;;;;;;;0.00;0.00;;;19.00;96.50;;;;;;5053652;28;20173;-60
2023/07/03 06:12:59;;;;;;;0.03;0.03;;;19.10;96.50;;;;;;5053918;28;20177;-60
2023/07/03 06:15:24;;;;;;;0.00;0.00;;;19.20;96.60;;;;;;5053678;28;20169;-60
2023/07/03 06:17:50;;;;;;;0.00;0.00;;;19.20;96.10;;;;;;5053579;28;20214;-60
2023/07/03 06:20:16;;;;;;;0.00;0.00;;;19.30;96.30;;;;;;5053644;28;20174;-60
2023/07/03 06:22:42;;;;;;;0.00;0.00;;;19.40;95.70;;;;;;5053426;28;20189;-60
2023/07/03 06:25:08;;;;;;;0.00;0.00;;;19.40;95.40;;;;;;5053669;28;20219;-60
2023/07/03 06:27:34;;;;;;;0.00;0.00;;;19.40;95.40;;;;;;5052697;28;20239;-59
2023/07/03 06:30:00;;;;;;;0.00;0.00;;;19.50;95.40;;;;;;5052325;28;20633;-59
2023/07/03 06:32:25;;;;;;;0.00;0.00;;;19.60;94.90;;;;;;5052165;28;20177;-59
2023/07/03 06:34:51;;;;;;;0.00;0.00;;;19.70;94.20;;;;;;5052141;28;20173;-59
2023/07/03 06:37:16;;;;;;;0.00;0.00;;;19.70;93.90;;;;;;5052030;28;20209;-59
2023/07/03 06:39:42;;;;;;;0.00;0.00;;;19.70;93.50;;;;;;5052162;28;20530;-59
2023/07/03 06:42:09;;;;;;;0.00;0.00;;;19.70;93.70;;;;;;5052164;28;20201;-59
2023/07/03 06:44:36;;;;;;;0.00;0.00;;;19.80;93.10;;;;;;5051997;28;20184;-59
2023/07/03 06:47:02;;;;;;;0.00;0.00;;;19.80;93.00;;;;;;5052138;28;20189;-59
2023/07/03 06:49:29;;;;;;;0.00;0.00;;;19.80;92.50;;;;;;5052203;28;20216;-59
2023/07/03 06:51:56;;;;;;;0.00;0.00;;;19.80;92.20;;;;;;5052355;28;20633;-60
2023/07/03 06:54:22;;;;;;;0.00;0.00;;;19.90;91.90;;;;;;5052255;28;20223;-60
2023/07/03 06:56:47;;;;;;;0.00;0.00;;;20.00;91.20;;;;;;5052199;28;20209;-60
2023/07/03 06:59:13;;;;;;;0.00;0.00;;;20.00;90.90;;;;;;5052045;28;20185;-60
2023/07/03 07:01:39;;;;;;;0.00;0.00;;;19.90;90.70;;;;;;5052184;28;20181;-60
2023/07/03 07:04:05;;;;;;;0.00;0.00;;;20.00;91.00;;;;;;5052126;28;20178;-60
2023/07/03 07:06:31;;;;;;;0.10;0.10;;;20.10;91.80;;;;;;5050714;28;20185;-60
2023/07/03 07:08:58;;;;;;;0.00;0.00;;;20.20;91.80;;;;;;5052115;28;20260;-60
2023/07/03 07:11:30;;;;;;;0.00;0.00;;;20.20;91.80;;;;;;5051969;28;20205;-60
2023/07/03 07:13:58;;;;;;;0.00;0.00;;;20.30;92.10;;;;;;5051959;28;20305;-60
2023/07/03 07:16:32;;;;;;;0.00;0.00;;;20.50;91.40;;;;;;5051805;28;20212;-60
2023/07/03 07:19:00;;;;;;;0.00;0.00;;;20.30;91.10;;;;;;5051961;28;20231;-60
2023/07/03 07:21:26;;;;;;;0.08;0.08;;;20.30;91.30;;;;;;5051815;28;20213;-61
2023/07/03 07:23:54;;;;;;;0.00;0.00;;;20.30;91.20;;;;;;5051676;28;20182;-60
2023/07/03 07:26:21;;;;;;;0.00;0.00;;;20.30;90.90;;;;;;5051774;28;20165;-60
2023/07/03 07:28:46;;;;;;;0.67;0.67;;;20.40;91.10;;;;;;5016757;28;1023278;-60
2023/07/03 07:31:19;;;;;;;0.00;0.00;;;20.50;90.40;;;;;;5052591;28;20428;-60
2023/07/03 07:33:45;;;;;;;0.00;0.00;;;20.70;89.90;;;;;;5052722;28;20701;-60
2023/07/03 07:36:15;;;;;;;0.10;0.10;;;20.90;89.40;;;;;;5051225;28;20231;-60
2023/07/03 07:38:40;;;;;;;0.00;0.00;;;21.10;88.30;;;;;;5052625;28;20196;-60
2023/07/03 07:41:06;;;;;;;0.00;0.00;;;21.20;86.90;;;;;;5052558;28;20166;-60
2023/07/03 07:43:32;;;;;;;0.00;0.00;;;21.50;87.00;;;;;;5052353;28;20177;-60
2023/07/03 07:45:58;;;;;;;0.10;0.10;;;21.70;87.00;;;;;;5052508;28;20174;-60
2023/07/03 07:48:23;;;;;;;0.00;0.00;;;22.10;86.50;;;;;;5052371;28;20170;-60
2023/07/03 07:50:49;;;;;;;0.00;0.00;;;22.40;85.10;;;;;;5052530;28;20178;-60
2023/07/03 07:53:15;;;;;;;0.00;0.00;;;22.60;83.40;;;;;;5052226;28;20181;-60
2023/07/03 07:55:41;;;;;;;0.28;0.28;;;22.60;82.00;;;;;;5052188;28;20532;-60
2023/07/03 07:58:06;;;;;;;0.00;0.00;;;22.80;81.10;;;;;;5051538;28;20307;-61
2023/07/03 08:00:32;;;;;;;0.00;0.00;;;22.90;81.10;;;;;;5052056;28;20189;-60
2023/07/03 08:02:57;;;;;;;0.00;0.00;;;23.20;81.40;;;;;;5052121;28;20172;-60
2023/07/03 08:05:23;;;;;;;0.00;0.00;;;23.10;79.50;;;;;;5052018;28;20178;-59
2023/07/03 08:07:48;;;;;;;0.00;0.00;;;23.00;79.50;;;;;;5052000;28;20177;-59
2023/07/03 08:10:14;;;;;;;0.00;0.00;;;23.00;79.90;;;;;;5051796;28;20571;-59
2023/07/03 08:12:41;;;;;;;0.45;0.45;;;22.90;79.80;;;;;;5051953;28;20181;-59
2023/07/03 08:15:07;;;;;;;0.00;0.00;;;22.70;78.40;;;;;;5051719;28;20248;-59
2023/07/03 08:17:33;;;;;;;0.00;0.00;;;22.70;78.70;;;;;;5051547;28;20225;-59
2023/07/03 08:19:59;;;;;;;0.00;0.00;;;22.80;79.30;;;;;;5051816;28;20173;-59
2023/07/03 08:22:24;;;;;;;0.00;0.00;;;22.90;79.80;;;;;;5051616;28;20173;-59
2023/07/03 08:24:50;;;;;;;0.00;0.00;;;23.30;79.30;;;;;;5051778;28;20170;-59
2023/07/03 08:27:15;;;;;;;0.00;0.00;;;23.80;78.40;;;;;;5051466;28;20232;-59
2023/07/03 08:29:41;;;;;;;0.00;0.00;;;24.30;76.70;;;;;;5051570;28;20181;-59
2023/07/03 08:32:09;;;;;;;0.00;0.00;;;25.10;73.40;;;;;;5051621;28;20177;-59
2023/07/03 08:34:35;;;;;;;0.00;0.00;;;26.10;71.80;;;;;;5051333;28;20161;-59
2023/07/03 08:37:01;;;;;;;0.00;0.00;;;26.60;66.80;;;;;;5051440;28;20243;-59
2023/07/03 08:39:26;;;;;;;0.00;0.00;;;26.70;66.20;;;;;;5051305;28;20235;-59
2023/07/03 08:42:04;;;;;;;0.00;0.00;;;26.70;67.70;;;;;;5051384;28;20242;-59
2023/07/03 08:44:30;;;;;;;0.00;0.00;;;26.70;64.80;;;;;;5051312;28;20169;-60
2023/07/03 08:47:00;;;;;;;0.00;0.00;;;26.30;64.90;;;;;;5051365;28;20173;-59
2023/07/03 08:49:27;;;;;;;0.00;0.00;;;26.40;64.60;;;;;;5051287;28;20177;-59
2023/07/03 08:51:57;;;;;;;0.00;0.00;;;26.20;64.40;;;;;;5051097;28;20181;-59
2023/07/03 08:54:28;;;;;;;0.05;0.05;;;26.30;63.60;;;;;;5051165;28;20180;-59
2023/07/03 08:56:56;;;;;;;0.00;0.00;;;26.00;63.10;;;;;;5049732;28;20205;-59
2023/07/03 08:59:21;;;;;;;0.00;0.00;;;25.40;63.70;;;;;;5051052;28;20227;-58
2023/07/03 09:01:54;;;;;;;0.00;0.00;;;24.90;64.90;;;;;;5051084;28;20169;-59
2023/07/03 09:04:38;;;;;;;0.00;0.00;;;24.40;66.80;;;;;;5050980;28;20235;-59
2023/07/03 09:07:33;;;;;;;0.00;0.00;;;24.30;67.30;;;;;;5051081;28;20169;-59
2023/07/03 09:10:22;;;;;;;0.00;0.00;;;24.20;67.40;;;;;;5050819;28;20178;-58
2023/07/03 09:13:04;;;;;;;0.00;0.00;;;24.10;66.50;;;;;;5051046;28;20181;-59
2023/07/03 09:16:14;;;;;;;0.00;0.00;;;24.00;67.30;;;;;;5050758;28;20200;-59
2023/07/03 09:18:48;;;;;;;0.00;0.00;;;23.90;67.70;;;;;;5048413;28;20734;-59
2023/07/03 09:21:13;;;;;;;0.00;0.00;;;24.10;67.90;;;;;;5050727;28;20541;-59
2023/07/03 09:24:09;;;;;;;0.00;0.00;;;24.30;67.60;;;;;;5049594;28;20189;-59
2023/07/03 09:26:44;;;;;;;0.00;0.00;;;24.60;68.20;;;;;;5050672;28;20773;-59
2023/07/03 09:29:11;;;;;;;0.00;0.00;;;24.80;66.80;;;;;;5050598;28;20730;-58
2023/07/03 09:31:37;;;;;;;0.10;0.10;;;24.70;66.10;;;;;;5049431;28;20209;-58
2023/07/03 09:34:02;;;;;;;0.00;0.00;;;24.70;66.10;;;;;;5050769;28;20181;-58
2023/07/03 09:36:34;;;;;;;0.00;0.00;;;24.70;65.90;;;;;;5050526;28;20212;-59
2023/07/03 09:39:13;;;;;;;0.00;0.00;;;24.70;66.00;;;;;;5050666;28;20204;-59
2023/07/03 09:41:40;;;;;;;0.85;0.85;;;24.50;66.20;;;;;;5050536;28;20165;-59
2023/07/03 09:44:10;;;;;;;0.10;0.10;;;24.30;66.10;;;;;;5050463;28;20645;-59
2023/07/03 09:46:36;;;;;;;0.00;0.00;;;24.10;67.00;;;;;;5050433;28;20170;-59
2023/07/03 09:49:03;;;;;;;0.00;0.00;;;24.20;66.90;;;;;;5050589;28;20188;-59
2023/07/03 09:51:30;;;;;;;0.00;0.00;;;24.20;66.90;;;;;;5050458;28;20645;-59
2023/07/03 09:53:57;;;;;;;0.00;0.00;;;24.20;67.30;;;;;;5050366;28;20641;-59
2023/07/03 09:56:28;;;;;;;0.00;0.00;;;24.10;66.60;;;;;;5050478;28;20166;-59
2023/07/03 09:58:58;;;;;;;0.00;0.00;;;23.80;66.70;;;;;;5050378;28;20231;-59
2023/07/03 10:01:27;;;;;;;0.00;0.00;;;23.70;67.60;;;;;;5050457;28;20185;-59
2023/07/03 10:04:08;;;;;;;0.00;0.00;;;23.70;68.20;;;;;;5050380;28;20180;-59
2023/07/03 10:06:34;;;;;;;0.00;0.00;;;23.60;68.50;;;;;;5050606;28;20177;-59
2023/07/03 10:09:04;;;;;;;0.00;0.00;;;23.60;69.00;;;;;;5050888;28;20181;-59
2023/07/03 10:11:49;;;;;;;0.20;0.20;;;23.70;68.50;;;;;;5050732;28;20177;-59
2023/07/03 10:14:21;;;;;;;0.00;0.00;;;23.60;68.10;;;;;;5050659;28;20645;-59
2023/07/03 10:16:48;;;;;;;0.00;0.00;;;23.40;67.40;;;;;;5050677;28;20572;-59
2023/07/03 10:19:15;;;;;;;0.00;0.00;;;23.40;68.20;;;;;;5050912;28;20186;-59
2023/07/03 10:21:42;;;;;;;0.25;0.25;;;23.20;67.60;;;;;;5053659;28;20220;-59
2023/07/03 10:24:08;;;;;;;0.00;0.00;;;23.20;68.50;;;;;;5054442;28;20169;-58
2023/07/03 10:26:42;;;;;;;0.00;0.00;;;23.40;68.70;;;;;;5054167;28;20173;-58
2023/07/03 10:29:16;;;;;;;0.00;0.00;;;23.90;69.30;;;;;;5054273;28;20231;-59
2023/07/03 10:31:54;;;;;;;0.00;0.00;;;24.20;67.30;;;;;;5054291;28;20173;-58
2023/07/03 10:34:37;;;;;;;0.00;0.00;;;24.40;67.10;;;;;;5054236;28;20636;-59
2023/07/03 10:37:05;;;;;;;0.00;0.00;;;24.40;66.50;;;;;;5054355;28;20331;-58
2023/07/03 10:39:57;;;;;;;0.00;0.00;;;24.40;66.20;;;;;;5053986;28;20178;-59
2023/07/03 10:42:29;;;;;;;0.00;0.00;;;24.10;66.80;;;;;;5050934;28;20208;-59
2023/07/03 10:45:01;;;;;;;0.00;0.00;;;24.20;67.50;;;;;;5053965;28;20173;-58
2023/07/03 10:47:52;;;;;;;0.00;0.00;;;24.30;67.40;;;;;;5053895;28;20220;-58
2023/07/03 10:50:22;;;;;;;0.00;0.00;;;24.20;66.10;;;;;;5053895;28;20169;-59
2023/07/03 10:52:56;;;;;;;0.00;0.00;;;24.10;67.10;;;;;;5053991;28;20173;-59
2023/07/03 10:55:23;;;;;;;0.00;0.00;;;23.80;66.50;;;;;;5053908;28;20199;-59
2023/07/03 10:58:02;;;;;;;0.00;0.00;;;23.40;67.10;;;;;;5053706;28;20221;-59
2023/07/03 11:01:09;;;;;;;0.00;0.00;;;23.20;68.00;;;;;;5053774;28;20486;-59
2023/07/03 11:03:58;;;;;;;0.00;0.00;;;23.20;67.60;;;;;;5053499;28;20184;-58
2023/07/03 11:06:39;;;;;;;0.00;0.00;;;23.00;67.40;;;;;;5053607;28;20166;-58
2023/07/03 11:09:25;;;;;;;0.00;0.00;;;23.00;68.00;;;;;;5053701;28;20169;-58
2023/07/03 11:12:13;;;;;;;0.00;0.00;;;22.90;67.30;;;;;;5053433;28;20179;-58
2023/07/03 11:14:57;;;;;;;0.00;0.00;;;22.70;68.60;;;;;;5053460;28;20190;-59
2023/07/03 11:17:55;;;;;;;0.00;0.00;;;22.50;69.70;;;;;;5053279;28;20220;-59
2023/07/03 11:20:27;;;;;;;0.00;0.00;;;22.50;70.00;;;;;;5053284;28;20182;-59
2023/07/03 11:23:10;;;;;;;0.00;0.00;;;22.60;70.00;;;;;;5053208;28;20652;-59
2023/07/03 11:25:56;;;;;;;0.00;0.00;;;22.70;70.50;;;;;;5053215;28;20195;-59
2023/07/03 11:28:35;;;;;;;0.00;0.00;;;23.10;70.50;;;;;;5052959;28;20232;-58
2023/07/03 11:31:04;;;;;;;0.00;0.00;;;23.20;69.10;;;;;;5052996;28;20174;-58
2023/07/03 11:33:32;;;;;;;0.00;0.00;;;23.20;68.80;;;;;;5052049;28;20199;-59
2023/07/03 11:36:00;;;;;;;0.00;0.00;;;23.40;69.40;;;;;;5053106;28;20185;-58
2023/07/03 11:38:27;;;;;;;0.00;0.00;;;23.60;69.30;;;;;;5052857;28;20548;-59
2023/07/03 11:40:55;;;;;;;0.00;0.00;;;24.10;68.50;;;;;;5052864;28;20173;-59
2023/07/03 11:43:39;;;;;;;0.00;0.00;;;24.40;67.20;;;;;;5052810;28;20168;-59
2023/07/03 11:46:08;;;;;;;0.00;0.00;;;24.30;66.40;;;;;;5052841;28;20173;-59
2023/07/03 11:48:39;;;;;;;1.08;0.17;;;24.40;67.50;;;;;;5052529;28;20165;-58
2023/07/03 11:51:11;;;;;;;0.00;0.00;;;24.60;66.30;;;;;;5052733;28;20212;-59
2023/07/03 11:53:39;;;;;;;0.00;0.00;;;24.40;66.00;;;;;;5052615;28;20175;-59
2023/07/03 11:56:10;;;;;;;0.00;0.00;;;24.30;66.40;;;;;;5052770;28;20178;-59
2023/07/03 11:58:37;;;;;;;0.00;0.00;;;24.70;66.10;;;;;;5052613;28;20201;-58
2023/07/03 12:01:20;;;;;;;0.00;0.00;;;24.90;63.00;;;;;;5052684;28;20545;-58
2023/07/03 12:03:50;;;;;;;0.00;0.00;;;25.10;64.20;;;;;;5052500;28;20185;-59
2023/07/03 12:06:38;;;;;;;0.15;0.15;;;25.40;63.40;;;;;;5052496;28;20183;-59
2023/07/03 12:09:21;;;;;;;0.00;0.00;;;25.30;62.30;;;;;;5052453;28;20260;-59
2023/07/03 12:11:59;;;;;;;0.00;0.00;;;25.20;63.30;;;;;;5052453;28;20177;-59
2023/07/03 12:14:40;;;;;;;0.00;0.00;;;25.40;62.10;;;;;;5052249;28;20209;-59
2023/07/03 12:17:25;;;;;;;0.00;0.00;;;25.30;61.90;;;;;;5052200;28;20263;-59
2023/07/03 12:20:05;;;;;;;0.00;0.00;;;25.20;62.40;;;;;;5052240;28;20541;-59
2023/07/03 12:22:35;;;;;;;0.00;0.00;;;25.10;60.90;;;;;;5051924;28;20181;-59
2023/07/03 12:25:03;;;;;;;0.00;0.00;;;25.00;60.90;;;;;;5052105;28;20177;-59
2023/07/03 12:27:29;;;;;;;0.00;0.00;;;25.10;62.60;;;;;;5051834;28;20619;-59
2023/07/03 12:29:54;;;;;;;0.00;0.00;;;25.10;63.10;;;;;;5052008;28;20230;-59
2023/07/03 12:32:32;;;;;;;0.00;0.00;;;24.90;62.30;;;;;;5051965;28;20173;-59
2023/07/03 12:35:18;;;;;;;0.05;0.00;;;24.90;63.00;;;;;;5052107;28;20692;-59
2023/07/03 12:37:45;;;;;;;0.00;0.00;;;25.00;63.10;;;;;;5051742;28;20217;-59
2023/07/03 12:40:16;;;;;;;0.00;0.00;;;25.30;63.00;;;;;;5051639;28;20549;-59
2023/07/03 12:42:48;;;;;;;0.00;0.00;;;25.50;63.40;;;;;;5051566;28;20645;-59
2023/07/03 12:45:21;;;;;;;0.00;0.00;;;25.80;63.30;;;;;;5051748;28;20186;-59
2023/07/03 12:48:06;;;;;;;0.00;0.00;;;25.90;61.40;;;;;;5051777;28;20177;-59
2023/07/03 12:51:04;;;;;;;0.00;0.00;;;25.90;61.20;;;;;;5051446;28;20177;-59
2023/07/03 12:53:34;;;;;;;0.00;0.00;;;25.50;61.10;;;;;;5046706;28;20664;-59
2023/07/03 12:56:03;;;;;;;0.00;0.00;;;25.60;63.20;;;;;;5051716;28;20243;-59
2023/07/03 12:58:29;;;;;;;0.00;0.00;;;25.50;62.50;;;;;;5051079;28;20296;-59
2023/07/03 13:01:06;;;;;;;0.00;0.00;;;25.50;63.40;;;;;;5051083;28;20264;-59